Weather at Hilo International Airport

Public forecast

Using degrees Fahrenheit for public forecast. Weather courtesy of forecast.io.

Current aviation weather report (METAR) for Hilo International Airport

Retrieved 2021/10/16 17:53 UTC (29 minutes ago):

PHTO 161753Z 25006KT 9SM FEW028 BKN050 OVC060 22/20 A3005

Aviation forecast (TAF) for Hilo International Airport

Retrieved 2021/10/16 18:42 UTC (0 seconds ago):

TAF PHTO 161740Z 1618/1718 26006KT P6SM VCSH SCT025 BKN035 TEMPO 1618/1621 6SM -SHRA BR BKN025 FM162100 06008KT P6SM VCSH SCT030 BKN050 FM170400 26005KT P6SM VCSH SCT025 BKN040